createdAt,value
2019-04-10T00:01:49.640Z,87.77
2019-04-10T00:04:21.495Z,87.45
2019-04-10T00:06:52.722Z,87.41
2019-04-10T00:09:23.838Z,87.44
2019-04-10T00:11:56.987Z,87.49
2019-04-10T00:14:28.327Z,87.57
2019-04-10T00:17:00.530Z,87.96
2019-04-10T00:19:32.904Z,88.34
2019-04-10T00:22:06.163Z,88.47
2019-04-10T00:24:38.105Z,88.30
2019-04-10T00:27:10.313Z,88.37
2019-04-10T00:29:42.529Z,88.44
2019-04-10T00:32:14.810Z,88.87
2019-04-10T00:34:47.679Z,89.20
2019-04-10T00:37:26.389Z,89.35
2019-04-10T00:39:53.502Z,89.54
2019-04-10T00:42:26.096Z,89.73
2019-04-10T00:44:57.811Z,90.00
2019-04-10T00:47:29.654Z,89.43
2019-04-10T00:50:02.276Z,89.54
2019-04-10T00:52:38.580Z,89.83
2019-04-10T00:55:11.754Z,89.81
2019-04-10T00:57:42.934Z,90.44
2019-04-10T01:00:17.522Z,90.64
2019-04-10T01:02:49.408Z,90.80
2019-04-10T01:05:21.428Z,90.88
2019-04-10T01:07:53.943Z,91.08
2019-04-10T01:10:26.259Z,90.89
2019-04-10T01:12:58.712Z,91.22
2019-04-10T01:15:30.802Z,91.05
2019-04-10T01:18:02.665Z,91.10
2019-04-10T01:20:34.593Z,90.95
2019-04-10T01:23:07.899Z,90.89
2019-04-10T01:25:40.833Z,90.78
2019-04-10T01:28:12.808Z,90.67
2019-04-10T01:30:44.760Z,90.92
2019-04-10T01:33:16.663Z,90.32
2019-04-10T01:35:48.809Z,89.99
2019-04-10T01:38:20.335Z,89.68
2019-04-10T01:40:53.128Z,89.48
2019-04-10T01:43:25.069Z,89.28
2019-04-10T01:45:57.864Z,89.14
2019-04-10T01:48:30.167Z,88.96
2019-04-10T01:51:03.212Z,89.03
2019-04-10T01:53:35.571Z,89.13
2019-04-10T01:56:20.413Z,89.22
2019-04-10T01:58:43.307Z,88.98
2019-04-10T02:01:40.834Z,88.80
2019-04-10T02:04:12.840Z,88.52
2019-04-10T02:06:45.365Z,88.75
2019-04-10T02:09:16.614Z,88.59
2019-04-10T02:11:48.433Z,88.46
2019-04-10T02:14:20.456Z,88.37
2019-04-10T02:16:52.362Z,88.35
2019-04-10T02:19:24.229Z,88.87
2019-04-10T02:21:56.169Z,88.82
2019-04-10T02:24:27.532Z,88.99
2019-04-10T02:27:00.223Z,89.21
2019-04-10T02:29:33.520Z,89.32
2019-04-10T02:32:05.767Z,89.13
2019-04-10T02:34:39.180Z,88.93
2019-04-10T02:37:12.780Z,88.59
2019-04-10T02:39:49.637Z,88.42
2019-04-10T02:42:18.775Z,88.21
2019-04-10T02:44:52.026Z,88.16
2019-04-10T02:47:24.147Z,88.26
2019-04-10T02:49:56.667Z,88.21
2019-04-10T02:52:30.801Z,87.95
2019-04-10T02:55:03.800Z,87.94
2019-04-10T02:57:37.457Z,87.84
2019-04-10T03:00:10.903Z,87.96
2019-04-10T03:02:43.535Z,87.79
2019-04-10T03:05:16.299Z,87.91
2019-04-10T03:07:50.177Z,87.99
2019-04-10T03:10:33.452Z,88.18
2019-04-10T03:12:58.715Z,88.02
2019-04-10T03:15:31.516Z,87.61
2019-04-10T03:18:04.270Z,87.27
2019-04-10T03:20:36.495Z,87.33
2019-04-10T03:23:09.333Z,86.94
2019-04-10T03:25:41.485Z,87.23
2019-04-10T03:28:14.511Z,87.46
2019-04-10T03:30:47.095Z,86.83
2019-04-10T03:33:29.952Z,86.08
2019-04-10T03:36:01.530Z,85.41
2019-04-10T03:38:34.329Z,84.94
2019-04-10T03:41:06.293Z,84.89
2019-04-10T03:43:38.260Z,84.55
2019-04-10T03:46:10.961Z,84.50
2019-04-10T03:48:43.106Z,84.87
2019-04-10T03:51:14.940Z,84.39
2019-04-10T03:53:46.800Z,84.40
2019-04-10T03:56:18.582Z,84.40
2019-04-10T03:58:49.815Z,84.37
2019-04-10T04:01:22.693Z,84.48
2019-04-10T04:03:55.910Z,84.28
2019-04-10T04:06:27.945Z,84.22
2019-04-10T04:09:06.981Z,84.37
2019-04-10T04:11:35.231Z,84.22
2019-04-10T04:14:08.203Z,83.89
2019-04-10T04:16:41.511Z,83.90
2019-04-10T04:19:14.000Z,83.63
2019-04-10T04:21:46.192Z,83.53
2019-04-10T04:24:26.628Z,84.05
2019-04-10T04:26:58.064Z,84.17
2019-04-10T04:29:32.291Z,83.61
2019-04-10T04:32:05.136Z,83.57
2019-04-10T04:34:37.605Z,83.27
2019-04-10T04:37:10.193Z,83.24
2019-04-10T04:39:43.340Z,82.95
2019-04-10T04:42:15.264Z,82.83
2019-04-10T04:44:47.777Z,82.00
2019-04-10T04:47:20.270Z,81.60
2019-04-10T04:49:52.406Z,81.54
2019-04-10T04:52:24.489Z,81.45
2019-04-10T04:54:57.331Z,81.72
2019-04-10T04:57:29.276Z,81.74
2019-04-10T05:00:01.115Z,81.47
2019-04-10T05:02:33.148Z,81.37
2019-04-10T05:05:04.872Z,81.16
2019-04-10T05:07:37.406Z,80.89
2019-04-10T05:10:09.837Z,80.47
2019-04-10T05:12:43.243Z,79.75
2019-04-10T05:15:18.907Z,79.35
2019-04-10T05:17:51.788Z,78.64
2019-04-10T05:20:25.467Z,78.87
2019-04-10T05:22:57.650Z,78.23
2019-04-10T05:25:30.104Z,78.24
2019-04-10T05:28:03.670Z,77.59
2019-04-10T05:30:38.041Z,77.37
2019-04-10T05:33:09.458Z,77.42
2019-04-10T05:35:41.886Z,78.18
2019-04-10T05:38:13.370Z,76.37
2019-04-10T05:40:46.474Z,75.98
2019-04-10T05:43:19.862Z,75.85
2019-04-10T05:45:55.184Z,75.51
2019-04-10T05:48:28.812Z,74.48
2019-04-10T05:51:04.236Z,73.84
2019-04-10T05:53:36.974Z,73.86
2019-04-10T05:56:09.853Z,73.80
2019-04-10T05:58:42.838Z,72.93
2019-04-10T06:01:15.890Z,72.87
2019-04-10T06:03:49.437Z,72.77
2019-04-10T06:06:22.315Z,72.46
2019-04-10T06:08:54.353Z,72.22
2019-04-10T06:11:28.927Z,71.25
2019-04-10T06:14:01.229Z,70.95
2019-04-10T06:16:35.675Z,70.46
2019-04-10T06:19:07.810Z,69.22
2019-04-10T06:21:41.097Z,68.46
2019-04-10T06:24:14.190Z,67.80
2019-04-10T06:26:47.815Z,67.27
2019-04-10T06:29:23.274Z,66.34
2019-04-10T06:31:56.865Z,66.27
2019-04-10T06:34:28.430Z,66.83
2019-04-10T06:37:04.038Z,65.42
2019-04-10T06:39:44.501Z,64.78
2019-04-10T06:42:20.407Z,63.92
2019-04-10T06:44:56.433Z,63.49
2019-04-10T06:47:28.803Z,63.23
2019-04-10T06:50:02.557Z,61.74
2019-04-10T06:52:34.876Z,60.44
2019-04-10T06:55:15.166Z,59.75
2019-04-10T06:57:53.812Z,59.59
2019-04-10T07:00:25.012Z,59.51
2019-04-10T07:02:58.763Z,58.80
2019-04-10T07:05:43.077Z,57.94
2019-04-10T07:08:16.423Z,56.45
2019-04-10T07:10:52.130Z,56.08
2019-04-10T07:13:21.350Z,57.14
2019-04-10T07:15:56.318Z,54.43
2019-04-10T07:18:28.943Z,54.15
2019-04-10T07:21:02.145Z,54.33
2019-04-10T07:23:34.567Z,54.53
2019-04-10T07:26:06.995Z,52.50
2019-04-10T07:28:45.678Z,51.67
2019-04-10T07:31:15.948Z,51.56
2019-04-10T07:33:50.396Z,52.05
2019-04-10T07:36:21.835Z,51.32
2019-04-10T07:38:56.118Z,49.21
2019-04-10T07:41:27.346Z,47.71
2019-04-10T07:43:59.295Z,48.65
2019-04-10T07:46:38.114Z,48.17
2019-04-10T07:49:11.803Z,47.64
2019-04-10T07:51:44.626Z,48.42
2019-04-10T07:54:20.834Z,47.51
2019-04-10T07:56:49.495Z,48.08
2019-04-10T07:59:21.271Z,48.49
2019-04-10T08:01:53.113Z,47.69
2019-04-10T08:04:29.028Z,47.80
2019-04-10T08:07:00.967Z,47.47
2019-04-10T08:09:33.393Z,46.89
2019-04-10T08:12:07.213Z,46.50
2019-04-10T08:14:42.045Z,46.46
2019-04-10T08:17:14.395Z,46.62
2019-04-10T08:19:45.906Z,46.64
2019-04-10T08:22:23.223Z,45.63
2019-04-10T08:25:00.669Z,46.07
2019-04-10T08:27:36.543Z,45.68
2019-04-10T08:30:10.995Z,45.96
2019-04-10T08:32:53.337Z,46.00
2019-04-10T08:35:17.666Z,46.16
2019-04-10T08:37:52.800Z,45.51
2019-04-10T08:40:27.896Z,45.47
2019-04-10T08:42:59.967Z,45.06
2019-04-10T08:45:44.277Z,43.65
2019-04-10T08:48:06.532Z,44.27
2019-04-10T08:50:38.539Z,43.83
2019-04-10T08:53:11.625Z,43.68
2019-04-10T08:55:43.308Z,43.22
2019-04-10T08:58:16.706Z,43.13
2019-04-10T09:00:52.395Z,42.90
2019-04-10T09:03:24.636Z,42.13
2019-04-10T09:05:58.727Z,42.68
2019-04-10T09:08:30.849Z,41.31
2019-04-10T09:11:02.994Z,41.75
2019-04-10T09:13:35.013Z,41.55
2019-04-10T09:16:07.456Z,41.46
2019-04-10T09:18:39.714Z,40.82
2019-04-10T09:21:11.397Z,40.83
2019-04-10T09:23:50.466Z,40.98
2019-04-10T09:26:18.168Z,41.18
2019-04-10T09:28:53.231Z,40.60
2019-04-10T09:31:25.964Z,40.59
2019-04-10T09:33:59.156Z,41.32
2019-04-10T09:36:33.299Z,41.41
2019-04-10T09:39:07.777Z,40.74
2019-04-10T09:41:45.989Z,41.20
2019-04-10T09:44:18.691Z,40.73
2019-04-10T09:46:51.662Z,40.67
2019-04-10T09:49:35.598Z,41.16
2019-04-10T09:52:01.403Z,40.64
2019-04-10T09:54:35.557Z,40.78
2019-04-10T09:57:09.106Z,40.73
2019-04-10T09:59:42.624Z,40.84
2019-04-10T10:02:16.229Z,41.06
2019-04-10T10:04:50.290Z,40.15
2019-04-10T10:07:24.172Z,40.61
2019-04-10T10:09:59.265Z,39.93
2019-04-10T10:12:32.559Z,39.79
2019-04-10T10:15:09.483Z,40.26
2019-04-10T10:17:41.921Z,40.67
2019-04-10T10:20:16.882Z,42.04
2019-04-10T10:22:49.500Z,40.06
2019-04-10T10:25:22.121Z,39.78
2019-04-10T10:27:56.476Z,40.34
2019-04-10T10:30:28.768Z,39.95
2019-04-10T10:33:01.497Z,39.52
2019-04-10T10:35:33.520Z,39.83
2019-04-10T10:38:07.791Z,39.45
2019-04-10T10:40:41.258Z,39.84
2019-04-10T10:43:16.198Z,39.06
2019-04-10T10:45:47.657Z,38.81
2019-04-10T10:48:21.948Z,38.66
2019-04-10T10:50:56.198Z,39.05
2019-04-10T10:53:34.735Z,38.98
2019-04-10T10:56:06.595Z,39.14
2019-04-10T10:58:42.209Z,38.93
2019-04-10T11:01:14.229Z,38.00
2019-04-10T11:03:48.801Z,38.48
2019-04-10T11:06:20.141Z,37.09
2019-04-10T11:08:53.676Z,37.06
2019-04-10T11:11:25.813Z,37.53
2019-04-10T11:13:57.786Z,38.08
2019-04-10T11:16:31.339Z,37.67
2019-04-10T11:19:04.763Z,38.61
2019-04-10T11:21:36.865Z,38.73
2019-04-10T11:24:09.221Z,38.63
2019-04-10T11:26:42.636Z,38.27
2019-04-10T11:29:23.798Z,37.84
2019-04-10T11:31:55.751Z,36.77
2019-04-10T11:34:29.101Z,37.12
2019-04-10T11:37:21.430Z,37.83
2019-04-10T11:39:43.399Z,36.30
2019-04-10T11:42:15.282Z,36.58
2019-04-10T11:44:49.292Z,35.93
2019-04-10T11:47:32.444Z,36.33
2019-04-10T11:50:13.535Z,36.57
2019-04-10T11:52:49.759Z,36.40
2019-04-10T11:55:21.340Z,36.16
2019-04-10T11:57:59.206Z,35.97
2019-04-10T12:00:50.579Z,35.10
2019-04-10T12:03:18.168Z,35.34
2019-04-10T12:05:51.807Z,35.34
2019-04-10T12:08:46.424Z,35.70
2019-04-10T12:13:35.095Z,36.05
2019-04-10T12:16:10.420Z,35.86
2019-04-10T12:18:47.112Z,35.36
2019-04-10T12:21:19.858Z,34.86
2019-04-10T12:23:53.500Z,35.77
2019-04-10T12:26:28.908Z,35.37
2019-04-10T12:29:04.407Z,35.14
2019-04-10T12:32:01.020Z,34.73
2019-04-10T12:34:34.019Z,34.81
2019-04-10T12:37:09.091Z,34.59
2019-04-10T12:39:58.546Z,34.97
2019-04-10T12:42:32.377Z,34.38
2019-04-10T12:45:06.285Z,34.92
2019-04-10T12:47:38.378Z,34.95
2019-04-10T12:50:10.521Z,34.54
2019-04-10T12:52:42.879Z,35.05
2019-04-10T12:55:16.423Z,33.89
2019-04-10T12:57:48.576Z,33.76
2019-04-10T13:00:23.685Z,34.00
2019-04-10T13:02:55.711Z,34.27
2019-04-10T13:05:27.741Z,34.17
2019-04-10T13:08:12.050Z,33.77
2019-04-10T13:10:33.629Z,33.59
2019-04-10T13:13:07.049Z,33.68
2019-04-10T13:15:39.331Z,34.29
2019-04-10T13:18:12.089Z,33.76
2019-04-10T13:20:44.236Z,33.63
2019-04-10T13:23:17.655Z,33.08
2019-04-10T13:25:55.501Z,32.79
2019-04-10T13:28:22.136Z,32.71
2019-04-10T13:30:55.563Z,31.87
2019-04-10T13:33:28.775Z,32.79
2019-04-10T13:36:00.826Z,32.82
2019-04-10T13:38:35.203Z,33.34
2019-04-10T13:41:12.763Z,32.20
2019-04-10T13:43:46.411Z,32.05
2019-04-10T13:46:33.835Z,31.88
2019-04-10T13:49:06.013Z,31.69
2019-04-10T13:51:37.849Z,31.75
2019-04-10T13:54:15.043Z,32.07
2019-04-10T13:56:46.814Z,30.97
2019-04-10T13:59:22.665Z,31.45
2019-04-10T14:01:53.715Z,30.93
2019-04-10T14:04:25.124Z,31.29
2019-04-10T14:06:57.789Z,31.12
2019-04-10T14:09:38.601Z,31.59
2019-04-10T14:12:03.993Z,30.79
2019-04-10T14:14:37.040Z,31.09
2019-04-10T14:17:09.719Z,30.46
2019-04-10T14:19:41.751Z,31.15
2019-04-10T14:22:13.704Z,31.14
2019-04-10T14:24:48.193Z,31.22
2019-04-10T14:27:24.407Z,31.75
2019-04-10T14:29:56.765Z,31.62
2019-04-10T14:32:40.064Z,32.14
2019-04-10T14:35:16.801Z,31.80
2019-04-10T14:37:49.668Z,31.12
2019-04-10T14:40:22.292Z,31.82
2019-04-10T14:42:54.181Z,31.60
2019-04-10T14:45:26.358Z,31.55
2019-04-10T14:48:00.128Z,31.82
2019-04-10T14:50:33.464Z,32.11
2019-04-10T14:53:05.773Z,32.82
2019-04-10T14:55:37.953Z,33.20
2019-04-10T14:58:20.595Z,33.04
2019-04-10T15:00:50.480Z,32.68
2019-04-10T15:03:23.140Z,33.08
2019-04-10T15:05:57.032Z,32.68
2019-04-10T15:08:29.030Z,32.89
2019-04-10T15:11:01.048Z,32.83
2019-04-10T15:13:36.146Z,32.60
2019-04-10T15:16:07.572Z,32.78
2019-04-10T16:01:48.894Z,32.76
2019-04-10T16:04:23.695Z,33.00
2019-04-10T16:06:56.031Z,33.02
2019-04-10T16:09:38.851Z,33.11
2019-04-10T16:12:18.619Z,33.22
2019-04-10T16:14:46.769Z,33.56
2019-04-10T16:17:37.603Z,33.40
2019-04-10T16:20:34.875Z,33.74
2019-04-10T16:23:21.931Z,33.86
2019-04-10T16:25:55.844Z,33.45
2019-04-10T16:28:31.450Z,33.75
2019-04-10T16:31:05.369Z,33.74
2019-04-10T16:33:36.431Z,33.92
2019-04-10T16:36:08.585Z,33.77
2019-04-10T16:38:40.642Z,34.01
2019-04-10T16:41:12.222Z,34.19
2019-04-10T16:43:44.563Z,34.45
2019-04-10T16:46:17.368Z,34.55
2019-04-10T16:48:50.479Z,34.61
2019-04-10T16:51:22.558Z,34.49
2019-04-10T16:53:55.861Z,34.62
2019-04-10T16:56:29.774Z,34.66
2019-04-10T16:59:04.523Z,34.90
2019-04-10T17:01:35.130Z,34.88
2019-04-10T17:04:07.010Z,34.95
2019-04-10T17:06:38.726Z,35.08
2019-04-10T17:09:12.448Z,35.28
2019-04-10T17:11:45.209Z,35.71
2019-04-10T17:14:20.384Z,36.14
2019-04-10T17:16:53.719Z,36.14
2019-04-10T17:19:24.920Z,36.43
2019-04-10T17:21:56.872Z,37.01
2019-04-10T17:24:29.307Z,36.51
2019-04-10T17:27:01.828Z,36.76
2019-04-10T17:29:33.422Z,38.08
2019-04-10T17:32:06.760Z,37.15
2019-04-10T17:34:39.003Z,37.48
2019-04-10T17:37:11.739Z,38.23
2019-04-10T17:39:43.888Z,38.05
2019-04-10T17:42:16.571Z,38.27
2019-04-10T17:44:49.769Z,38.77
2019-04-10T17:47:21.367Z,39.24
2019-04-10T17:49:53.929Z,38.90
2019-04-10T17:52:27.143Z,39.20
2019-04-10T17:55:00.883Z,39.42
2019-04-10T17:57:38.217Z,39.97
2019-04-10T18:00:13.442Z,40.20
2019-04-10T18:02:44.715Z,39.84
2019-04-10T18:05:15.910Z,39.97
2019-04-10T18:07:48.112Z,40.44
2019-04-10T18:10:20.369Z,40.50
2019-04-10T18:12:52.702Z,40.99
2019-04-10T18:15:24.195Z,41.79
2019-04-10T18:17:56.038Z,41.89
2019-04-10T18:20:28.270Z,42.25
2019-04-10T18:23:00.825Z,42.68
2019-04-10T18:25:33.928Z,42.21
2019-04-10T18:28:07.412Z,42.57
2019-04-10T18:30:40.568Z,42.97
2019-04-10T18:33:12.151Z,42.84
2019-04-10T18:35:44.139Z,42.92
2019-04-10T18:38:15.938Z,43.24
2019-04-10T18:40:55.858Z,43.57
2019-04-10T18:43:20.342Z,43.80
2019-04-10T18:46:03.435Z,43.29
2019-04-10T18:48:26.966Z,43.60
2019-04-10T18:50:59.359Z,43.60
2019-04-10T18:53:31.432Z,43.74
2019-04-10T18:56:03.014Z,43.97
2019-04-10T18:58:41.331Z,44.14
2019-04-10T19:01:41.180Z,44.63
2019-04-10T19:04:24.585Z,44.98
2019-04-10T19:07:01.037Z,44.76
2019-04-10T19:09:36.849Z,45.02
2019-04-10T19:12:08.542Z,45.45
2019-04-10T19:14:40.724Z,45.68
2019-04-10T19:17:12.855Z,45.77
2019-04-10T19:19:45.363Z,45.70
2019-04-10T19:22:18.314Z,45.96
2019-04-10T19:24:50.271Z,46.73
2019-04-10T19:27:22.304Z,46.95
2019-04-10T19:29:54.972Z,47.37
2019-04-10T19:32:35.264Z,47.13
2019-04-10T19:35:08.116Z,47.67
2019-04-10T19:37:39.319Z,47.72
2019-04-10T19:40:12.167Z,47.68
2019-04-10T19:42:44.139Z,48.09
2019-04-10T19:45:15.466Z,48.71
2019-04-10T19:47:47.376Z,48.69
2019-04-10T19:50:19.404Z,48.56
2019-04-10T19:52:51.054Z,48.98
2019-04-10T19:55:23.948Z,49.65
2019-04-10T19:57:55.948Z,49.45
2019-04-10T20:00:33.238Z,49.52
2019-04-10T20:03:05.699Z,49.77
2019-04-10T20:05:37.861Z,50.46
2019-04-10T20:08:10.218Z,50.34
2019-04-10T20:10:43.660Z,50.37
2019-04-10T20:13:16.591Z,50.62
2019-04-10T20:15:48.901Z,51.27
2019-04-10T20:18:21.026Z,51.38
2019-04-10T20:20:53.397Z,51.13
2019-04-10T20:23:25.144Z,51.37
2019-04-10T20:25:57.243Z,51.03
2019-04-10T20:28:28.868Z,51.64
2019-04-10T20:31:01.241Z,51.73
2019-04-10T20:33:32.691Z,52.70
2019-04-10T20:36:04.814Z,52.59
2019-04-10T20:38:36.808Z,51.64
2019-04-10T20:41:08.666Z,52.12
2019-04-10T20:43:39.900Z,52.17
2019-04-10T20:46:11.850Z,52.22
2019-04-10T20:48:44.655Z,52.60
2019-04-10T20:51:16.624Z,52.48
2019-04-10T20:53:48.583Z,52.18
2019-04-10T20:56:22.285Z,52.34
2019-04-10T20:58:54.842Z,52.53
2019-04-10T21:01:26.880Z,52.92
2019-04-10T21:03:58.878Z,53.66
2019-04-10T21:06:31.761Z,53.61
2019-04-10T21:09:03.240Z,54.21
2019-04-10T21:11:37.690Z,54.45
2019-04-10T21:14:09.572Z,55.36
2019-04-10T21:16:42.191Z,55.48
2019-04-10T21:19:14.241Z,55.22
2019-04-10T21:21:45.428Z,55.35
2019-04-10T21:24:17.394Z,56.12
2019-04-10T21:26:48.624Z,56.40
2019-04-10T21:29:38.381Z,56.54
2019-04-10T21:32:32.417Z,56.35
2019-04-10T21:35:07.593Z,57.21
2019-04-10T21:37:40.619Z,57.20
2019-04-10T21:40:11.950Z,57.22
2019-04-10T21:42:43.273Z,57.83
2019-04-10T21:45:15.930Z,58.00
2019-04-10T21:47:48.170Z,58.13
2019-04-10T21:50:21.487Z,57.92
2019-04-10T21:52:53.549Z,58.40
2019-04-10T21:55:24.760Z,58.12
2019-04-10T21:57:57.617Z,58.22
2019-04-10T22:00:54.851Z,58.79
2019-04-10T22:03:28.028Z,58.58
2019-04-10T22:06:22.182Z,58.93
2019-04-10T22:09:07.375Z,59.13
2019-04-10T22:11:41.315Z,59.90
2019-04-10T22:14:12.987Z,60.52
2019-04-10T22:16:44.373Z,60.43
2019-04-10T22:19:16.630Z,60.83
2019-04-10T22:21:48.548Z,61.14
2019-04-10T22:24:21.386Z,60.88
2019-04-10T22:26:54.357Z,60.91
2019-04-10T22:29:26.002Z,61.27
2019-04-10T22:31:57.974Z,61.87
2019-04-10T22:34:29.880Z,61.78
2019-04-10T22:37:02.126Z,62.05
2019-04-10T22:39:34.002Z,62.15
2019-04-10T22:42:06.127Z,62.30
2019-04-10T22:44:42.330Z,62.08
2019-04-10T22:47:11.362Z,62.40
2019-04-10T22:49:43.259Z,61.99
2019-04-10T22:52:15.478Z,62.22
2019-04-10T22:54:46.818Z,62.64
2019-04-10T22:57:18.890Z,62.12
2019-04-10T22:59:51.142Z,61.76
2019-04-10T23:02:23.477Z,62.06
2019-04-10T23:04:55.675Z,61.79
2019-04-10T23:07:28.202Z,61.46
2019-04-10T23:10:00.333Z,61.58
2019-04-10T23:12:32.043Z,61.83
2019-04-10T23:15:03.992Z,61.96
2019-04-10T23:17:37.219Z,62.31
2019-04-10T23:20:10.779Z,62.80
2019-04-10T23:22:43.156Z,62.90
2019-04-10T23:25:14.395Z,63.44
2019-04-10T23:27:46.115Z,63.40
2019-04-10T23:30:19.950Z,63.72
2019-04-10T23:32:51.479Z,63.77
2019-04-10T23:35:23.302Z,64.29
2019-04-10T23:37:55.275Z,63.85
2019-04-10T23:40:27.286Z,64.43
2019-04-10T23:43:07.474Z,64.73
2019-04-10T23:45:33.526Z,64.74
2019-04-10T23:48:06.604Z,64.31
2019-04-10T23:50:38.658Z,64.44
2019-04-10T23:53:10.441Z,64.44
2019-04-10T23:55:42.283Z,64.46
2019-04-10T23:58:14.155Z,64.46
